sensor_id;sensor_type;location;lat;lon;timestamp;P1;durP1;ratioP1;P2;durP2;ratioP2
61291;SDS011;47165;42.664;23.368;2024-02-26T00:01:36;6.40;;;3.28;;
61291;SDS011;47165;42.664;23.368;2024-02-26T00:04:02;6.65;;;3.72;;
61291;SDS011;47165;42.664;23.368;2024-02-26T00:06:31;6.50;;;3.85;;
61291;SDS011;47165;42.664;23.368;2024-02-26T00:08:57;7.97;;;3.75;;
61291;SDS011;47165;42.664;23.368;2024-02-26T00:11:24;6.72;;;4.35;;
61291;SDS011;47165;42.664;23.368;2024-02-26T00:13:49;8.10;;;4.55;;
61291;SDS011;47165;42.664;23.368;2024-02-26T00:16:15;6.85;;;3.60;;
61291;SDS011;47165;42.664;23.368;2024-02-26T00:18:40;6.53;;;4.05;;
61291;SDS011;47165;42.664;23.368;2024-02-26T00:21:06;6.28;;;3.63;;
61291;SDS011;47165;42.664;23.368;2024-02-26T00:23:31;5.90;;;3.45;;
61291;SDS011;47165;42.664;23.368;2024-02-26T00:25:57;7.80;;;3.78;;
61291;SDS011;47165;42.664;23.368;2024-02-26T00:28:23;7.43;;;3.90;;
61291;SDS011;47165;42.664;23.368;2024-02-26T00:30:50;4.88;;;3.88;;
61291;SDS011;47165;42.664;23.368;2024-02-26T00:33:20;7.15;;;4.03;;
61291;SDS011;47165;42.664;23.368;2024-02-26T00:35:46;8.00;;;4.53;;
61291;SDS011;47165;42.664;23.368;2024-02-26T00:38:12;6.60;;;4.53;;
61291;SDS011;47165;42.664;23.368;2024-02-26T00:40:38;5.57;;;3.42;;
61291;SDS011;47165;42.664;23.368;2024-02-26T00:43:03;7.18;;;4.38;;
61291;SDS011;47165;42.664;23.368;2024-02-26T00:45:29;6.18;;;4.25;;
61291;SDS011;47165;42.664;23.368;2024-02-26T00:47:54;4.18;;;3.47;;
61291;SDS011;47165;42.664;23.368;2024-02-26T00:50:20;6.82;;;4.13;;
61291;SDS011;47165;42.664;23.368;2024-02-26T00:52:46;7.03;;;4.38;;
61291;SDS011;47165;42.664;23.368;2024-02-26T00:55:11;6.75;;;3.28;;
61291;SDS011;47165;42.664;23.368;2024-02-26T00:57:37;5.55;;;3.78;;
61291;SDS011;47165;42.664;23.368;2024-02-26T01:00:02;7.20;;;3.22;;
61291;SDS011;47165;42.664;23.368;2024-02-26T01:02:28;5.72;;;3.00;;
61291;SDS011;47165;42.664;23.368;2024-02-26T01:04:54;6.90;;;2.80;;
61291;SDS011;47165;42.664;23.368;2024-02-26T01:07:20;6.40;;;4.25;;
61291;SDS011;47165;42.664;23.368;2024-02-26T01:09:45;6.85;;;4.32;;
61291;SDS011;47165;42.664;23.368;2024-02-26T01:12:10;8.27;;;4.40;;
61291;SDS011;47165;42.664;23.368;2024-02-26T01:14:36;6.00;;;3.28;;
61291;SDS011;47165;42.664;23.368;2024-02-26T01:17:01;7.07;;;4.32;;
61291;SDS011;47165;42.664;23.368;2024-02-26T01:19:27;7.53;;;3.20;;
61291;SDS011;47165;42.664;23.368;2024-02-26T01:21:53;7.40;;;4.50;;
61291;SDS011;47165;42.664;23.368;2024-02-26T01:24:18;6.40;;;3.70;;
61291;SDS011;47165;42.664;23.368;2024-02-26T01:26:44;10.10;;;4.47;;
61291;SDS011;47165;42.664;23.368;2024-02-26T01:29:09;7.75;;;4.50;;
61291;SDS011;47165;42.664;23.368;2024-02-26T01:31:35;6.88;;;4.03;;
61291;SDS011;47165;42.664;23.368;2024-02-26T01:34:01;6.30;;;3.38;;
61291;SDS011;47165;42.664;23.368;2024-02-26T01:36:26;9.27;;;5.00;;
61291;SDS011;47165;42.664;23.368;2024-02-26T01:38:52;6.47;;;4.35;;
61291;SDS011;47165;42.664;23.368;2024-02-26T01:41:17;7.20;;;3.28;;
61291;SDS011;47165;42.664;23.368;2024-02-26T01:43:43;8.77;;;5.13;;
61291;SDS011;47165;42.664;23.368;2024-02-26T01:46:10;7.82;;;3.88;;
61291;SDS011;47165;42.664;23.368;2024-02-26T01:48:39;8.88;;;4.78;;
61291;SDS011;47165;42.664;23.368;2024-02-26T01:51:05;7.28;;;3.88;;
61291;SDS011;47165;42.664;23.368;2024-02-26T01:53:31;10.60;;;5.55;;
61291;SDS011;47165;42.664;23.368;2024-02-26T01:55:57;10.75;;;5.60;;
61291;SDS011;47165;42.664;23.368;2024-02-26T01:58:23;9.10;;;4.32;;
61291;SDS011;47165;42.664;23.368;2024-02-26T02:00:48;8.23;;;4.90;;
61291;SDS011;47165;42.664;23.368;2024-02-26T02:03:14;7.43;;;3.80;;
61291;SDS011;47165;42.664;23.368;2024-02-26T02:05:40;6.95;;;3.85;;
61291;SDS011;47165;42.664;23.368;2024-02-26T02:08:07;7.82;;;4.70;;
61291;SDS011;47165;42.664;23.368;2024-02-26T02:10:36;6.55;;;4.15;;
61291;SDS011;47165;42.664;23.368;2024-02-26T02:13:03;5.68;;;3.92;;
61291;SDS011;47165;42.664;23.368;2024-02-26T02:15:29;6.93;;;4.38;;
61291;SDS011;47165;42.664;23.368;2024-02-26T02:17:54;7.60;;;4.85;;
61291;SDS011;47165;42.664;23.368;2024-02-26T02:20:24;7.38;;;4.00;;
61291;SDS011;47165;42.664;23.368;2024-02-26T02:22:52;8.30;;;4.63;;
61291;SDS011;47165;42.664;23.368;2024-02-26T02:25:17;10.98;;;6.15;;
61291;SDS011;47165;42.664;23.368;2024-02-26T02:27:43;10.45;;;5.28;;
61291;SDS011;47165;42.664;23.368;2024-02-26T02:30:09;10.55;;;5.35;;
61291;SDS011;47165;42.664;23.368;2024-02-26T02:32:36;8.63;;;5.03;;
61291;SDS011;47165;42.664;23.368;2024-02-26T02:35:04;9.65;;;5.10;;
61291;SDS011;47165;42.664;23.368;2024-02-26T02:37:30;15.13;;;6.47;;
61291;SDS011;47165;42.664;23.368;2024-02-26T02:39:56;8.50;;;4.60;;
61291;SDS011;47165;42.664;23.368;2024-02-26T02:42:22;12.88;;;6.88;;
61291;SDS011;47165;42.664;23.368;2024-02-26T02:44:48;13.00;;;7.10;;
61291;SDS011;47165;42.664;23.368;2024-02-26T02:47:14;15.32;;;7.38;;
61291;SDS011;47165;42.664;23.368;2024-02-26T02:49:40;12.10;;;5.72;;
61291;SDS011;47165;42.664;23.368;2024-02-26T02:52:06;10.25;;;5.15;;
61291;SDS011;47165;42.664;23.368;2024-02-26T02:54:31;8.18;;;5.40;;
61291;SDS011;47165;42.664;23.368;2024-02-26T02:56:57;10.77;;;4.75;;
61291;SDS011;47165;42.664;23.368;2024-02-26T02:59:22;7.25;;;3.88;;
61291;SDS011;47165;42.664;23.368;2024-02-26T03:01:48;7.35;;;3.50;;
61291;SDS011;47165;42.664;23.368;2024-02-26T03:04:14;11.52;;;6.32;;
61291;SDS011;47165;42.664;23.368;2024-02-26T03:06:39;10.18;;;5.38;;
61291;SDS011;47165;42.664;23.368;2024-02-26T03:09:05;9.90;;;4.85;;
61291;SDS011;47165;42.664;23.368;2024-02-26T03:11:30;5.13;;;3.10;;
61291;SDS011;47165;42.664;23.368;2024-02-26T03:13:56;8.15;;;4.90;;
61291;SDS011;47165;42.664;23.368;2024-02-26T03:16:21;13.13;;;5.82;;
61291;SDS011;47165;42.664;23.368;2024-02-26T03:18:46;12.25;;;6.43;;
61291;SDS011;47165;42.664;23.368;2024-02-26T03:21:12;11.10;;;5.72;;
61291;SDS011;47165;42.664;23.368;2024-02-26T03:23:37;9.77;;;5.30;;
61291;SDS011;47165;42.664;23.368;2024-02-26T03:26:03;11.45;;;5.72;;
61291;SDS011;47165;42.664;23.368;2024-02-26T03:28:29;12.43;;;4.70;;
61291;SDS011;47165;42.664;23.368;2024-02-26T03:30:55;9.05;;;5.45;;
61291;SDS011;47165;42.664;23.368;2024-02-26T03:33:22;8.73;;;5.10;;
61291;SDS011;47165;42.664;23.368;2024-02-26T03:35:48;9.02;;;5.63;;
61291;SDS011;47165;42.664;23.368;2024-02-26T03:38:13;9.15;;;4.90;;
61291;SDS011;47165;42.664;23.368;2024-02-26T03:40:39;9.20;;;5.10;;
61291;SDS011;47165;42.664;23.368;2024-02-26T03:43:04;11.35;;;5.40;;
61291;SDS011;47165;42.664;23.368;2024-02-26T03:45:32;9.55;;;5.28;;
61291;SDS011;47165;42.664;23.368;2024-02-26T03:47:57;11.95;;;5.85;;
61291;SDS011;47165;42.664;23.368;2024-02-26T03:50:23;9.90;;;6.13;;
61291;SDS011;47165;42.664;23.368;2024-02-26T03:52:51;12.02;;;5.90;;
61291;SDS011;47165;42.664;23.368;2024-02-26T03:55:16;9.40;;;4.97;;
61291;SDS011;47165;42.664;23.368;2024-02-26T03:57:47;10.93;;;5.82;;
61291;SDS011;47165;42.664;23.368;2024-02-26T04:00:12;9.75;;;5.28;;
61291;SDS011;47165;42.664;23.368;2024-02-26T04:02:38;10.27;;;5.43;;
61291;SDS011;47165;42.664;23.368;2024-02-26T04:05:04;11.57;;;5.85;;
61291;SDS011;47165;42.664;23.368;2024-02-26T04:07:30;11.57;;;6.20;;
61291;SDS011;47165;42.664;23.368;2024-02-26T04:09:55;11.27;;;5.63;;
61291;SDS011;47165;42.664;23.368;2024-02-26T04:12:21;10.13;;;5.85;;
61291;SDS011;47165;42.664;23.368;2024-02-26T04:14:46;13.20;;;6.03;;
61291;SDS011;47165;42.664;23.368;2024-02-26T04:17:12;9.25;;;6.38;;
61291;SDS011;47165;42.664;23.368;2024-02-26T04:19:38;10.52;;;5.85;;
61291;SDS011;47165;42.664;23.368;2024-02-26T04:22:04;10.98;;;5.38;;
61291;SDS011;47165;42.664;23.368;2024-02-26T04:24:30;9.27;;;6.38;;
61291;SDS011;47165;42.664;23.368;2024-02-26T04:26:55;11.95;;;6.13;;
61291;SDS011;47165;42.664;23.368;2024-02-26T04:29:21;9.80;;;5.80;;
61291;SDS011;47165;42.664;23.368;2024-02-26T04:31:46;11.60;;;5.95;;
61291;SDS011;47165;42.664;23.368;2024-02-26T04:34:12;11.05;;;6.05;;
61291;SDS011;47165;42.664;23.368;2024-02-26T04:36:38;12.05;;;6.80;;
61291;SDS011;47165;42.664;23.368;2024-02-26T04:39:04;11.88;;;6.47;;
61291;SDS011;47165;42.664;23.368;2024-02-26T04:41:30;8.40;;;5.60;;
61291;SDS011;47165;42.664;23.368;2024-02-26T04:43:55;11.65;;;6.03;;
61291;SDS011;47165;42.664;23.368;2024-02-26T04:46:21;12.98;;;6.70;;
61291;SDS011;47165;42.664;23.368;2024-02-26T04:48:50;13.38;;;7.13;;
61291;SDS011;47165;42.664;23.368;2024-02-26T04:51:16;11.18;;;5.28;;
61291;SDS011;47165;42.664;23.368;2024-02-26T04:53:41;14.20;;;6.55;;
61291;SDS011;47165;42.664;23.368;2024-02-26T04:56:07;8.55;;;5.32;;
61291;SDS011;47165;42.664;23.368;2024-02-26T04:58:33;8.23;;;5.35;;
61291;SDS011;47165;42.664;23.368;2024-02-26T05:00:59;8.80;;;4.75;;
61291;SDS011;47165;42.664;23.368;2024-02-26T05:03:24;7.55;;;4.22;;
61291;SDS011;47165;42.664;23.368;2024-02-26T05:05:50;10.07;;;4.90;;
61291;SDS011;47165;42.664;23.368;2024-02-26T05:08:15;8.98;;;4.60;;
61291;SDS011;47165;42.664;23.368;2024-02-26T05:10:40;10.65;;;5.20;;
61291;SDS011;47165;42.664;23.368;2024-02-26T05:13:08;8.07;;;4.38;;
61291;SDS011;47165;42.664;23.368;2024-02-26T05:15:33;12.65;;;5.80;;
61291;SDS011;47165;42.664;23.368;2024-02-26T05:17:59;10.43;;;5.38;;
61291;SDS011;47165;42.664;23.368;2024-02-26T05:20:25;8.23;;;5.20;;
61291;SDS011;47165;42.664;23.368;2024-02-26T05:22:50;12.20;;;6.80;;
61291;SDS011;47165;42.664;23.368;2024-02-26T05:25:17;11.15;;;6.15;;
61291;SDS011;47165;42.664;23.368;2024-02-26T05:27:43;11.10;;;5.38;;
61291;SDS011;47165;42.664;23.368;2024-02-26T05:30:09;7.55;;;5.10;;
61291;SDS011;47165;42.664;23.368;2024-02-26T05:32:35;12.52;;;6.18;;
61291;SDS011;47165;42.664;23.368;2024-02-26T05:35:01;15.15;;;6.60;;
61291;SDS011;47165;42.664;23.368;2024-02-26T05:37:28;17.90;;;9.18;;
61291;SDS011;47165;42.664;23.368;2024-02-26T05:39:54;16.30;;;9.25;;
61291;SDS011;47165;42.664;23.368;2024-02-26T05:42:20;14.25;;;7.82;;
61291;SDS011;47165;42.664;23.368;2024-02-26T05:44:45;17.90;;;9.32;;
61291;SDS011;47165;42.664;23.368;2024-02-26T05:47:11;17.35;;;9.05;;
61291;SDS011;47165;42.664;23.368;2024-02-26T05:49:38;17.05;;;8.05;;
61291;SDS011;47165;42.664;23.368;2024-02-26T05:52:04;13.98;;;8.73;;
61291;SDS011;47165;42.664;23.368;2024-02-26T05:54:29;15.93;;;8.80;;
61291;SDS011;47165;42.664;23.368;2024-02-26T05:56:55;17.13;;;8.85;;
61291;SDS011;47165;42.664;23.368;2024-02-26T05:59:21;20.30;;;9.07;;
61291;SDS011;47165;42.664;23.368;2024-02-26T06:01:47;12.90;;;7.47;;
61291;SDS011;47165;42.664;23.368;2024-02-26T06:04:12;16.92;;;8.40;;
61291;SDS011;47165;42.664;23.368;2024-02-26T06:06:38;14.20;;;8.57;;
61291;SDS011;47165;42.664;23.368;2024-02-26T06:09:04;15.25;;;8.35;;
61291;SDS011;47165;42.664;23.368;2024-02-26T06:11:30;18.05;;;9.07;;
61291;SDS011;47165;42.664;23.368;2024-02-26T06:13:56;16.08;;;10.00;;
61291;SDS011;47165;42.664;23.368;2024-02-26T06:16:21;18.80;;;9.63;;
61291;SDS011;47165;42.664;23.368;2024-02-26T06:18:47;16.58;;;8.40;;
61291;SDS011;47165;42.664;23.368;2024-02-26T06:21:12;16.23;;;7.97;;
61291;SDS011;47165;42.664;23.368;2024-02-26T06:23:38;15.45;;;9.05;;
61291;SDS011;47165;42.664;23.368;2024-02-26T06:26:05;17.48;;;9.57;;
61291;SDS011;47165;42.664;23.368;2024-02-26T06:28:31;16.55;;;8.52;;
61291;SDS011;47165;42.664;23.368;2024-02-26T06:30:58;17.60;;;8.35;;
61291;SDS011;47165;42.664;23.368;2024-02-26T06:33:23;18.02;;;9.32;;
61291;SDS011;47165;42.664;23.368;2024-02-26T06:35:49;17.88;;;9.13;;
61291;SDS011;47165;42.664;23.368;2024-02-26T06:38:14;18.63;;;8.30;;
61291;SDS011;47165;42.664;23.368;2024-02-26T06:40:40;16.40;;;8.90;;
61291;SDS011;47165;42.664;23.368;2024-02-26T06:43:05;15.32;;;7.95;;
61291;SDS011;47165;42.664;23.368;2024-02-26T06:45:31;15.05;;;8.65;;
61291;SDS011;47165;42.664;23.368;2024-02-26T06:47:57;16.48;;;8.20;;
61291;SDS011;47165;42.664;23.368;2024-02-26T06:50:23;12.68;;;8.02;;
61291;SDS011;47165;42.664;23.368;2024-02-26T06:52:48;18.63;;;9.63;;
61291;SDS011;47165;42.664;23.368;2024-02-26T06:55:14;16.33;;;8.85;;
61291;SDS011;47165;42.664;23.368;2024-02-26T06:57:39;16.27;;;8.27;;
61291;SDS011;47165;42.664;23.368;2024-02-26T07:00:05;17.85;;;8.80;;
61291;SDS011;47165;42.664;23.368;2024-02-26T07:02:31;14.95;;;8.98;;
61291;SDS011;47165;42.664;23.368;2024-02-26T07:04:56;15.50;;;8.45;;
61291;SDS011;47165;42.664;23.368;2024-02-26T07:07:23;17.77;;;7.78;;
61291;SDS011;47165;42.664;23.368;2024-02-26T07:09:49;16.42;;;8.90;;
61291;SDS011;47165;42.664;23.368;2024-02-26T07:12:15;17.08;;;9.20;;
61291;SDS011;47165;42.664;23.368;2024-02-26T07:14:41;17.63;;;9.18;;
61291;SDS011;47165;42.664;23.368;2024-02-26T07:17:06;18.13;;;9.65;;
61291;SDS011;47165;42.664;23.368;2024-02-26T07:19:33;16.50;;;9.60;;
61291;SDS011;47165;42.664;23.368;2024-02-26T07:21:59;16.25;;;10.15;;
61291;SDS011;47165;42.664;23.368;2024-02-26T07:24:27;19.75;;;8.98;;
61291;SDS011;47165;42.664;23.368;2024-02-26T07:26:53;17.75;;;9.85;;
61291;SDS011;47165;42.664;23.368;2024-02-26T07:29:20;16.95;;;9.77;;
61291;SDS011;47165;42.664;23.368;2024-02-26T07:31:46;18.55;;;10.40;;
61291;SDS011;47165;42.664;23.368;2024-02-26T07:34:12;21.45;;;10.07;;
61291;SDS011;47165;42.664;23.368;2024-02-26T07:36:37;19.58;;;9.70;;
61291;SDS011;47165;42.664;23.368;2024-02-26T07:39:03;21.05;;;10.05;;
61291;SDS011;47165;42.664;23.368;2024-02-26T07:41:28;16.15;;;9.32;;
61291;SDS011;47165;42.664;23.368;2024-02-26T07:43:54;16.23;;;9.20;;
61291;SDS011;47165;42.664;23.368;2024-02-26T07:46:19;19.88;;;11.23;;
61291;SDS011;47165;42.664;23.368;2024-02-26T07:48:44;16.75;;;9.65;;
61291;SDS011;47165;42.664;23.368;2024-02-26T07:51:12;11.85;;;6.45;;
61291;SDS011;47165;42.664;23.368;2024-02-26T07:53:39;25.63;;;13.77;;
61291;SDS011;47165;42.664;23.368;2024-02-26T07:56:04;27.15;;;15.25;;
61291;SDS011;47165;42.664;23.368;2024-02-26T07:58:30;23.02;;;10.25;;
61291;SDS011;47165;42.664;23.368;2024-02-26T08:00:57;35.10;;;19.70;;
61291;SDS011;47165;42.664;23.368;2024-02-26T08:05:56;27.67;;;18.67;;
61291;SDS011;47165;42.664;23.368;2024-02-26T08:08:22;30.30;;;17.75;;
61291;SDS011;47165;42.664;23.368;2024-02-26T08:10:47;22.92;;;13.57;;
61291;SDS011;47165;42.664;23.368;2024-02-26T08:13:13;22.50;;;12.30;;
61291;SDS011;47165;42.664;23.368;2024-02-26T08:15:38;17.35;;;9.40;;
61291;SDS011;47165;42.664;23.368;2024-02-26T08:18:04;13.07;;;7.18;;
61291;SDS011;47165;42.664;23.368;2024-02-26T08:20:29;8.43;;;5.28;;
61291;SDS011;47165;42.664;23.368;2024-02-26T08:22:55;7.03;;;4.22;;
61291;SDS011;47165;42.664;23.368;2024-02-26T08:25:22;7.30;;;4.47;;
61291;SDS011;47165;42.664;23.368;2024-02-26T08:27:47;8.68;;;5.78;;
61291;SDS011;47165;42.664;23.368;2024-02-26T08:30:16;19.27;;;8.18;;
61291;SDS011;47165;42.664;23.368;2024-02-26T08:32:42;18.23;;;9.50;;
61291;SDS011;47165;42.664;23.368;2024-02-26T08:35:08;18.67;;;9.90;;
61291;SDS011;47165;42.664;23.368;2024-02-26T08:37:33;12.88;;;7.47;;
61291;SDS011;47165;42.664;23.368;2024-02-26T08:39:59;17.92;;;9.93;;
61291;SDS011;47165;42.664;23.368;2024-02-26T08:42:24;14.40;;;7.72;;
61291;SDS011;47165;42.664;23.368;2024-02-26T08:44:50;13.68;;;7.10;;
61291;SDS011;47165;42.664;23.368;2024-02-26T08:47:15;11.00;;;5.75;;
61291;SDS011;47165;42.664;23.368;2024-02-26T08:49:44;12.13;;;6.75;;
61291;SDS011;47165;42.664;23.368;2024-02-26T08:52:11;9.57;;;4.68;;
61291;SDS011;47165;42.664;23.368;2024-02-26T08:54:36;15.18;;;6.35;;
61291;SDS011;47165;42.664;23.368;2024-02-26T08:57:02;7.85;;;4.45;;
61291;SDS011;47165;42.664;23.368;2024-02-26T08:59:27;6.47;;;4.75;;
61291;SDS011;47165;42.664;23.368;2024-02-26T09:01:53;6.57;;;4.10;;
61291;SDS011;47165;42.664;23.368;2024-02-26T09:04:19;12.57;;;5.28;;
61291;SDS011;47165;42.664;23.368;2024-02-26T09:06:44;6.25;;;3.65;;
61291;SDS011;47165;42.664;23.368;2024-02-26T09:09:10;5.40;;;3.30;;
61291;SDS011;47165;42.664;23.368;2024-02-26T09:11:36;5.82;;;3.90;;
61291;SDS011;47165;42.664;23.368;2024-02-26T09:14:01;5.47;;;3.67;;
61291;SDS011;47165;42.664;23.368;2024-02-26T09:16:28;7.03;;;3.55;;
61291;SDS011;47165;42.664;23.368;2024-02-26T09:18:56;6.00;;;4.35;;
61291;SDS011;47165;42.664;23.368;2024-02-26T09:21:22;8.50;;;4.60;;
61291;SDS011;47165;42.664;23.368;2024-02-26T09:23:50;12.25;;;4.85;;
61291;SDS011;47165;42.664;23.368;2024-02-26T09:26:18;10.60;;;6.22;;
61291;SDS011;47165;42.664;23.368;2024-02-26T09:28:44;8.05;;;4.47;;
61291;SDS011;47165;42.664;23.368;2024-02-26T09:31:10;4.82;;;2.75;;
61291;SDS011;47165;42.664;23.368;2024-02-26T09:33:35;6.60;;;3.70;;
61291;SDS011;47165;42.664;23.368;2024-02-26T09:36:01;7.25;;;4.43;;
61291;SDS011;47165;42.664;23.368;2024-02-26T09:38:27;9.63;;;3.88;;
61291;SDS011;47165;42.664;23.368;2024-02-26T09:40:55;8.10;;;4.50;;
61291;SDS011;47165;42.664;23.368;2024-02-26T09:43:24;6.90;;;4.13;;
61291;SDS011;47165;42.664;23.368;2024-02-26T09:45:56;9.38;;;5.40;;
61291;SDS011;47165;42.664;23.368;2024-02-26T09:48:21;7.03;;;3.30;;
61291;SDS011;47165;42.664;23.368;2024-02-26T09:50:48;8.40;;;4.68;;
61291;SDS011;47165;42.664;23.368;2024-02-26T09:53:14;8.77;;;4.97;;
61291;SDS011;47165;42.664;23.368;2024-02-26T09:55:42;5.10;;;3.78;;
61291;SDS011;47165;42.664;23.368;2024-02-26T09:58:08;6.45;;;4.00;;
61291;SDS011;47165;42.664;23.368;2024-02-26T10:00:37;4.90;;;2.47;;
61291;SDS011;47165;42.664;23.368;2024-02-26T10:03:04;6.60;;;3.67;;
61291;SDS011;47165;42.664;23.368;2024-02-26T10:05:34;3.65;;;2.92;;
61291;SDS011;47165;42.664;23.368;2024-02-26T10:08:02;5.10;;;3.40;;
61291;SDS011;47165;42.664;23.368;2024-02-26T10:10:29;5.35;;;3.10;;
61291;SDS011;47165;42.664;23.368;2024-02-26T10:12:56;8.23;;;4.65;;
61291;SDS011;47165;42.664;23.368;2024-02-26T10:15:23;6.78;;;3.30;;
61291;SDS011;47165;42.664;23.368;2024-02-26T10:17:49;4.88;;;3.40;;
61291;SDS011;47165;42.664;23.368;2024-02-26T10:20:15;5.03;;;3.15;;
61291;SDS011;47165;42.664;23.368;2024-02-26T10:22:46;4.28;;;3.08;;
61291;SDS011;47165;42.664;23.368;2024-02-26T10:25:14;6.20;;;4.38;;
61291;SDS011;47165;42.664;23.368;2024-02-26T10:27:40;10.75;;;4.38;;
61291;SDS011;47165;42.664;23.368;2024-02-26T10:30:20;5.38;;;3.90;;
61291;SDS011;47165;42.664;23.368;2024-02-26T10:32:46;4.55;;;3.42;;
61291;SDS011;47165;42.664;23.368;2024-02-26T10:35:13;7.45;;;4.20;;
61291;SDS011;47165;42.664;23.368;2024-02-26T10:37:40;6.35;;;3.28;;
61291;SDS011;47165;42.664;23.368;2024-02-26T10:40:09;12.27;;;3.95;;
61291;SDS011;47165;42.664;23.368;2024-02-26T10:42:35;5.38;;;3.45;;
61291;SDS011;47165;42.664;23.368;2024-02-26T10:45:01;7.38;;;3.90;;
61291;SDS011;47165;42.664;23.368;2024-02-26T10:47:27;6.13;;;3.95;;
61291;SDS011;47165;42.664;23.368;2024-02-26T10:49:56;6.03;;;2.65;;
61291;SDS011;47165;42.664;23.368;2024-02-26T10:52:21;5.45;;;3.58;;
61291;SDS011;47165;42.664;23.368;2024-02-26T10:54:52;4.82;;;3.63;;
61291;SDS011;47165;42.664;23.368;2024-02-26T10:57:21;5.57;;;3.45;;
61291;SDS011;47165;42.664;23.368;2024-02-26T10:59:48;4.38;;;3.30;;
61291;SDS011;47165;42.664;23.368;2024-02-26T11:02:14;7.07;;;3.33;;
61291;SDS011;47165;42.664;23.368;2024-02-26T11:04:40;6.22;;;4.07;;
61291;SDS011;47165;42.664;23.368;2024-02-26T11:07:06;6.15;;;3.75;;
61291;SDS011;47165;42.664;23.368;2024-02-26T11:09:34;7.40;;;3.95;;
61291;SDS011;47165;42.664;23.368;2024-02-26T11:12:01;8.98;;;4.15;;
61291;SDS011;47165;42.664;23.368;2024-02-26T11:14:27;7.05;;;4.72;;
61291;SDS011;47165;42.664;23.368;2024-02-26T11:16:55;5.43;;;3.50;;
61291;SDS011;47165;42.664;23.368;2024-02-26T11:19:21;9.52;;;4.97;;
61291;SDS011;47165;42.664;23.368;2024-02-26T11:21:49;5.35;;;3.63;;
61291;SDS011;47165;42.664;23.368;2024-02-26T11:24:15;7.78;;;3.83;;
61291;SDS011;47165;42.664;23.368;2024-02-26T11:26:50;4.13;;;3.53;;
61291;SDS011;47165;42.664;23.368;2024-02-26T11:29:26;6.20;;;4.00;;
61291;SDS011;47165;42.664;23.368;2024-02-26T11:31:54;3.70;;;2.65;;
61291;SDS011;47165;42.664;23.368;2024-02-26T11:34:20;5.45;;;3.33;;
61291;SDS011;47165;42.664;23.368;2024-02-26T11:36:46;4.88;;;3.42;;
61291;SDS011;47165;42.664;23.368;2024-02-26T11:39:12;4.47;;;3.28;;
61291;SDS011;47165;42.664;23.368;2024-02-26T11:41:40;6.63;;;3.67;;
61291;SDS011;47165;42.664;23.368;2024-02-26T11:44:07;7.68;;;4.85;;
61291;SDS011;47165;42.664;23.368;2024-02-26T11:46:38;4.88;;;3.30;;
61291;SDS011;47165;42.664;23.368;2024-02-26T11:51:58;5.85;;;3.35;;
61291;SDS011;47165;42.664;23.368;2024-02-26T11:57:28;4.70;;;3.22;;
61291;SDS011;47165;42.664;23.368;2024-02-26T12:05:06;4.57;;;2.70;;
61291;SDS011;47165;42.664;23.368;2024-02-26T12:07:35;6.43;;;2.78;;
61291;SDS011;47165;42.664;23.368;2024-02-26T12:10:21;4.40;;;3.42;;
61291;SDS011;47165;42.664;23.368;2024-02-26T12:13:00;4.03;;;2.55;;
61291;SDS011;47165;42.664;23.368;2024-02-26T12:15:32;10.13;;;2.60;;
61291;SDS011;47165;42.664;23.368;2024-02-26T12:18:03;5.28;;;3.17;;
61291;SDS011;47165;42.664;23.368;2024-02-26T12:20:33;4.78;;;2.70;;
61291;SDS011;47165;42.664;23.368;2024-02-26T12:23:00;3.97;;;2.25;;
61291;SDS011;47165;42.664;23.368;2024-02-26T12:25:28;4.60;;;2.45;;
61291;SDS011;47165;42.664;23.368;2024-02-26T12:27:54;5.45;;;3.20;;
61291;SDS011;47165;42.664;23.368;2024-02-26T12:30:20;6.10;;;2.50;;
61291;SDS011;47165;42.664;23.368;2024-02-26T12:32:47;5.15;;;3.83;;
61291;SDS011;47165;42.664;23.368;2024-02-26T12:35:14;2.33;;;1.67;;
61291;SDS011;47165;42.664;23.368;2024-02-26T12:37:41;4.40;;;3.10;;
61291;SDS011;47165;42.664;23.368;2024-02-26T12:40:07;4.50;;;2.92;;
61291;SDS011;47165;42.664;23.368;2024-02-26T12:42:37;5.20;;;3.30;;
61291;SDS011;47165;42.664;23.368;2024-02-26T12:45:07;5.70;;;3.50;;
61291;SDS011;47165;42.664;23.368;2024-02-26T12:47:37;6.65;;;3.35;;
61291;SDS011;47165;42.664;23.368;2024-02-26T12:50:14;4.28;;;2.63;;
61291;SDS011;47165;42.664;23.368;2024-02-26T12:52:45;9.05;;;3.75;;
61291;SDS011;47165;42.664;23.368;2024-02-26T12:55:13;8.05;;;3.05;;
61291;SDS011;47165;42.664;23.368;2024-02-26T12:57:42;5.00;;;3.53;;
61291;SDS011;47165;42.664;23.368;2024-02-26T13:00:14;5.32;;;3.30;;
61291;SDS011;47165;42.664;23.368;2024-02-26T13:02:42;6.05;;;2.78;;
61291;SDS011;47165;42.664;23.368;2024-02-26T13:05:10;8.93;;;4.10;;
61291;SDS011;47165;42.664;23.368;2024-02-26T13:07:41;3.55;;;2.55;;
61291;SDS011;47165;42.664;23.368;2024-02-26T13:10:08;4.70;;;2.88;;
61291;SDS011;47165;42.664;23.368;2024-02-26T13:12:36;5.55;;;3.63;;
61291;SDS011;47165;42.664;23.368;2024-02-26T13:15:02;7.07;;;2.88;;
61291;SDS011;47165;42.664;23.368;2024-02-26T13:17:31;4.88;;;2.40;;
61291;SDS011;47165;42.664;23.368;2024-02-26T13:19:57;7.53;;;3.22;;
61291;SDS011;47165;42.664;23.368;2024-02-26T13:22:23;6.65;;;3.80;;
61291;SDS011;47165;42.664;23.368;2024-02-26T13:24:58;8.30;;;3.22;;
61291;SDS011;47165;42.664;23.368;2024-02-26T13:27:25;5.03;;;2.70;;
61291;SDS011;47165;42.664;23.368;2024-02-26T13:30:10;4.95;;;2.88;;
61291;SDS011;47165;42.664;23.368;2024-02-26T13:32:37;5.95;;;3.03;;
61291;SDS011;47165;42.664;23.368;2024-02-26T13:35:12;9.27;;;3.03;;
61291;SDS011;47165;42.664;23.368;2024-02-26T13:37:39;4.60;;;2.58;;
61291;SDS011;47165;42.664;23.368;2024-02-26T13:40:09;5.43;;;3.30;;
61291;SDS011;47165;42.664;23.368;2024-02-26T13:42:36;4.10;;;2.60;;
61291;SDS011;47165;42.664;23.368;2024-02-26T13:45:03;5.03;;;3.28;;
61291;SDS011;47165;42.664;23.368;2024-02-26T13:47:32;3.03;;;1.92;;
61291;SDS011;47165;42.664;23.368;2024-02-26T13:49:58;5.45;;;2.75;;
61291;SDS011;47165;42.664;23.368;2024-02-26T13:52:24;5.15;;;2.58;;
61291;SDS011;47165;42.664;23.368;2024-02-26T13:54:51;5.18;;;2.33;;
61291;SDS011;47165;42.664;23.368;2024-02-26T13:57:16;4.03;;;2.05;;
61291;SDS011;47165;42.664;23.368;2024-02-26T13:59:43;3.53;;;2.25;;
61291;SDS011;47165;42.664;23.368;2024-02-26T14:02:09;4.57;;;1.70;;
61291;SDS011;47165;42.664;23.368;2024-02-26T14:04:35;11.18;;;3.30;;
61291;SDS011;47165;42.664;23.368;2024-02-26T14:07:01;3.78;;;2.65;;
61291;SDS011;47165;42.664;23.368;2024-02-26T14:09:28;5.22;;;2.40;;
61291;SDS011;47165;42.664;23.368;2024-02-26T14:11:54;7.45;;;3.53;;
61291;SDS011;47165;42.664;23.368;2024-02-26T14:14:20;3.65;;;2.03;;
61291;SDS011;47165;42.664;23.368;2024-02-26T14:16:46;6.85;;;4.00;;
61291;SDS011;47165;42.664;23.368;2024-02-26T14:19:12;12.52;;;4.82;;
61291;SDS011;47165;42.664;23.368;2024-02-26T14:21:37;6.22;;;3.80;;
61291;SDS011;47165;42.664;23.368;2024-02-26T14:24:03;6.22;;;3.45;;
61291;SDS011;47165;42.664;23.368;2024-02-26T14:26:29;6.97;;;2.58;;
61291;SDS011;47165;42.664;23.368;2024-02-26T14:28:55;4.32;;;2.22;;
61291;SDS011;47165;42.664;23.368;2024-02-26T14:31:21;7.10;;;2.40;;
61291;SDS011;47165;42.664;23.368;2024-02-26T14:33:46;5.82;;;2.70;;
61291;SDS011;47165;42.664;23.368;2024-02-26T14:36:13;3.95;;;2.28;;
61291;SDS011;47165;42.664;23.368;2024-02-26T14:38:38;7.35;;;2.90;;